sensor_id;sensor_type;location;lat;lon;timestamp;pressure;altitude;pressure_sealevel;temperature;humidity
6132;BME280;3097;42.692;23.278;2023-03-31T00:01:27;94983.63;;;9.13;60.99
6132;BME280;3097;42.692;23.278;2023-03-31T00:03:54;94997.03;;;9.22;60.80
6132;BME280;3097;42.692;23.278;2023-03-31T00:06:28;94994.44;;;9.22;61.14
6132;BME280;3097;42.692;23.278;2023-03-31T00:08:55;94918.69;;;8.68;60.91
6132;BME280;3097;42.692;23.278;2023-03-31T00:11:26;94904.47;;;8.66;61.08
6132;BME280;3097;42.692;23.278;2023-03-31T00:13:52;94966.25;;;9.09;60.72
6132;BME280;3097;42.692;23.278;2023-03-31T00:16:17;94913.69;;;8.73;60.58
6132;BME280;3097;42.692;23.278;2023-03-31T00:18:47;94987.13;;;9.19;61.65
6132;BME280;3097;42.692;23.278;2023-03-31T00:21:20;94983.69;;;9.07;61.71
6132;BME280;3097;42.692;23.278;2023-03-31T00:23:51;94977.94;;;9.05;62.15
6132;BME280;3097;42.692;23.278;2023-03-31T00:26:17;94967.50;;;9.00;62.67
6132;BME280;3097;42.692;23.278;2023-03-31T00:28:43;94889.53;;;8.49;62.69
6132;BME280;3097;42.692;23.278;2023-03-31T00:31:11;94987.72;;;9.21;61.89
6132;BME280;3097;42.692;23.278;2023-03-31T00:33:36;94975.97;;;9.07;63.11
6132;BME280;3097;42.692;23.278;2023-03-31T00:36:02;94977.22;;;9.22;62.20
6132;BME280;3097;42.692;23.278;2023-03-31T00:38:31;94971.34;;;9.15;62.45
6132;BME280;3097;42.692;23.278;2023-03-31T00:40:57;94948.66;;;9.06;62.17
6132;BME280;3097;42.692;23.278;2023-03-31T00:43:29;94955.59;;;9.30;62.21
6132;BME280;3097;42.692;23.278;2023-03-31T00:46:11;94962.47;;;9.36;61.59
6132;BME280;3097;42.692;23.278;2023-03-31T00:48:46;94913.66;;;9.05;60.91
6132;BME280;3097;42.692;23.278;2023-03-31T00:51:13;94925.22;;;9.20;61.88
6132;BME280;3097;42.692;23.278;2023-03-31T00:53:39;94943.75;;;9.47;62.23
6132;BME280;3097;42.692;23.278;2023-03-31T00:56:10;94945.91;;;9.50;62.61
6132;BME280;3097;42.692;23.278;2023-03-31T00:58:37;94946.91;;;9.49;61.03
6132;BME280;3097;42.692;23.278;2023-03-31T01:01:10;94954.63;;;9.49;62.20
6132;BME280;3097;42.692;23.278;2023-03-31T01:03:39;94942.34;;;9.51;63.41
6132;BME280;3097;42.692;23.278;2023-03-31T01:06:07;94939.06;;;9.44;63.61
6132;BME280;3097;42.692;23.278;2023-03-31T01:08:36;94940.19;;;9.48;63.15
6132;BME280;3097;42.692;23.278;2023-03-31T01:11:04;94942.22;;;9.46;64.03
6132;BME280;3097;42.692;23.278;2023-03-31T01:13:35;94939.78;;;9.51;64.26
6132;BME280;3097;42.692;23.278;2023-03-31T01:16:01;94927.69;;;9.52;63.86
6132;BME280;3097;42.692;23.278;2023-03-31T01:18:27;94940.09;;;9.61;64.05
6132;BME280;3097;42.692;23.278;2023-03-31T01:21:17;94946.44;;;9.59;64.40
6132;BME280;3097;42.692;23.278;2023-03-31T01:24:26;94938.06;;;9.63;64.26
6132;BME280;3097;42.692;23.278;2023-03-31T01:30:09;94948.88;;;9.72;64.19
6132;BME280;3097;42.692;23.278;2023-03-31T01:33:12;94942.94;;;9.71;64.06
6132;BME280;3097;42.692;23.278;2023-03-31T01:36:23;94903.63;;;9.46;63.38
6132;BME280;3097;42.692;23.278;2023-03-31T01:41:54;94960.03;;;9.66;63.30
6132;BME280;3097;42.692;23.278;2023-03-31T01:47:09;94970.97;;;9.80;62.82
6132;BME280;3097;42.692;23.278;2023-03-31T01:49:42;94969.84;;;9.76;61.49
6132;BME280;3097;42.692;23.278;2023-03-31T01:55:04;94974.25;;;9.87;61.96
6132;BME280;3097;42.692;23.278;2023-03-31T01:57:53;94970.84;;;9.75;62.50
6132;BME280;3097;42.692;23.278;2023-03-31T02:00:29;94970.75;;;9.81;62.46
6132;BME280;3097;42.692;23.278;2023-03-31T02:03:10;94964.69;;;9.76;62.89
6132;BME280;3097;42.692;23.278;2023-03-31T02:05:43;94983.16;;;9.91;62.50
6132;BME280;3097;42.692;23.278;2023-03-31T02:08:14;94980.41;;;9.86;63.60
6132;BME280;3097;42.692;23.278;2023-03-31T02:10:43;94981.06;;;9.81;63.59
6132;BME280;3097;42.692;23.278;2023-03-31T02:13:11;94992.44;;;9.92;63.78
6132;BME280;3097;42.692;23.278;2023-03-31T02:15:41;94991.28;;;9.88;62.30
6132;BME280;3097;42.692;23.278;2023-03-31T02:18:10;94965.69;;;9.75;62.47
6132;BME280;3097;42.692;23.278;2023-03-31T02:20:39;95008.44;;;9.94;63.07
6132;BME280;3097;42.692;23.278;2023-03-31T02:23:10;94996.72;;;9.80;65.05
6132;BME280;3097;42.692;23.278;2023-03-31T02:26:11;95009.38;;;9.81;64.26
6132;BME280;3097;42.692;23.278;2023-03-31T02:28:38;95014.53;;;9.81;63.74
6132;BME280;3097;42.692;23.278;2023-03-31T02:33:40;95005.25;;;9.98;63.63
6132;BME280;3097;42.692;23.278;2023-03-31T02:36:09;94920.19;;;9.50;64.47
6132;BME280;3097;42.692;23.278;2023-03-31T02:38:41;94971.06;;;9.91;65.12
6132;BME280;3097;42.692;23.278;2023-03-31T02:41:08;95017.16;;;10.36;66.50
6132;BME280;3097;42.692;23.278;2023-03-31T02:43:33;95023.03;;;10.43;68.22
6132;BME280;3097;42.692;23.278;2023-03-31T02:45:59;95014.38;;;10.37;69.11
6132;BME280;3097;42.692;23.278;2023-03-31T02:48:33;95021.44;;;10.42;69.59
6132;BME280;3097;42.692;23.278;2023-03-31T02:56:16;95002.44;;;10.55;70.05
6132;BME280;3097;42.692;23.278;2023-03-31T03:01:52;94976.88;;;10.53;70.43
6132;BME280;3097;42.692;23.278;2023-03-31T03:07:11;94971.53;;;10.55;69.93
6132;BME280;3097;42.692;23.278;2023-03-31T03:09:48;94968.53;;;10.58;69.43
6132;BME280;3097;42.692;23.278;2023-03-31T03:15:08;94950.03;;;10.61;68.50
6132;BME280;3097;42.692;23.278;2023-03-31T03:17:43;94900.44;;;10.35;68.14
6132;BME280;3097;42.692;23.278;2023-03-31T03:20:10;94953.75;;;10.65;67.94
6132;BME280;3097;42.692;23.278;2023-03-31T03:22:37;94956.91;;;10.67;67.28
6132;BME280;3097;42.692;23.278;2023-03-31T03:25:07;94961.97;;;10.73;66.82
6132;BME280;3097;42.692;23.278;2023-03-31T03:27:37;94954.88;;;10.69;67.45
6132;BME280;3097;42.692;23.278;2023-03-31T03:30:05;94956.66;;;10.68;67.43
6132;BME280;3097;42.692;23.278;2023-03-31T03:32:31;94950.41;;;10.76;67.04
6132;BME280;3097;42.692;23.278;2023-03-31T03:34:59;94946.13;;;10.70;66.69
6132;BME280;3097;42.692;23.278;2023-03-31T04:04:02;94941.47;;;10.90;63.59
6132;BME280;3097;42.692;23.278;2023-03-31T04:06:27;94910.84;;;10.70;63.80
6132;BME280;3097;42.692;23.278;2023-03-31T04:08:52;94945.41;;;10.93;63.55
6132;BME280;3097;42.692;23.278;2023-03-31T04:11:18;94936.00;;;10.86;63.96
6132;BME280;3097;42.692;23.278;2023-03-31T04:13:44;94898.25;;;10.62;66.50
6132;BME280;3097;42.692;23.278;2023-03-31T04:16:10;94940.25;;;10.81;67.65
6132;BME280;3097;42.692;23.278;2023-03-31T04:18:36;94942.50;;;10.89;68.67
6132;BME280;3097;42.692;23.278;2023-03-31T04:21:08;94924.41;;;10.66;74.83
6132;BME280;3097;42.692;23.278;2023-03-31T04:23:38;94924.50;;;10.71;71.67
6132;BME280;3097;42.692;23.278;2023-03-31T04:26:14;94905.03;;;10.45;70.49
6132;BME280;3097;42.692;23.278;2023-03-31T04:28:41;94936.72;;;10.64;71.02
6132;BME280;3097;42.692;23.278;2023-03-31T04:31:14;94946.13;;;10.70;71.53
6132;BME280;3097;42.692;23.278;2023-03-31T04:33:52;94926.31;;;10.70;72.00
6132;BME280;3097;42.692;23.278;2023-03-31T04:36:19;94922.81;;;10.65;72.00
6132;BME280;3097;42.692;23.278;2023-03-31T04:38:46;94928.22;;;10.75;70.63
6132;BME280;3097;42.692;23.278;2023-03-31T04:41:17;94912.38;;;10.60;70.14
6132;BME280;3097;42.692;23.278;2023-03-31T04:43:43;94917.78;;;10.70;70.40
6132;BME280;3097;42.692;23.278;2023-03-31T04:46:08;94927.56;;;10.79;71.14
6132;BME280;3097;42.692;23.278;2023-03-31T04:48:34;94903.41;;;10.62;71.41
6132;BME280;3097;42.692;23.278;2023-03-31T04:51:00;94928.22;;;10.75;72.03
6132;BME280;3097;42.692;23.278;2023-03-31T04:53:26;94927.78;;;10.78;71.54
6132;BME280;3097;42.692;23.278;2023-03-31T04:55:51;94906.81;;;10.74;71.34
6132;BME280;3097;42.692;23.278;2023-03-31T04:58:17;94906.38;;;10.77;71.84
6132;BME280;3097;42.692;23.278;2023-03-31T05:00:43;94913.22;;;10.83;72.34
6132;BME280;3097;42.692;23.278;2023-03-31T05:03:11;94907.50;;;10.93;72.05
6132;BME280;3097;42.692;23.278;2023-03-31T05:05:36;94854.66;;;10.61;71.50
6132;BME280;3097;42.692;23.278;2023-03-31T05:08:02;94902.81;;;11.02;68.53
6132;BME280;3097;42.692;23.278;2023-03-31T05:10:28;94875.88;;;10.86;67.11
6132;BME280;3097;42.692;23.278;2023-03-31T05:12:54;94884.09;;;11.06;66.01
6132;BME280;3097;42.692;23.278;2023-03-31T05:15:20;94886.34;;;11.14;64.40
6132;BME280;3097;42.692;23.278;2023-03-31T05:17:45;94896.56;;;11.33;63.41
6132;BME280;3097;42.692;23.278;2023-03-31T05:20:12;94865.25;;;11.17;63.96
6132;BME280;3097;42.692;23.278;2023-03-31T05:22:39;94902.72;;;11.43;63.83
6132;BME280;3097;42.692;23.278;2023-03-31T05:25:07;94888.34;;;11.59;62.28
6132;BME280;3097;42.692;23.278;2023-03-31T05:27:34;94867.94;;;11.57;60.70
6132;BME280;3097;42.692;23.278;2023-03-31T05:30:01;94891.47;;;11.84;60.93
6132;BME280;3097;42.692;23.278;2023-03-31T05:32:27;94889.50;;;12.03;60.87
6132;BME280;3097;42.692;23.278;2023-03-31T05:34:53;94891.28;;;12.43;59.76
6132;BME280;3097;42.692;23.278;2023-03-31T05:37:23;94881.19;;;12.58;57.36
6132;BME280;3097;42.692;23.278;2023-03-31T05:39:49;94858.03;;;12.63;53.29
6132;BME280;3097;42.692;23.278;2023-03-31T05:42:15;94881.53;;;12.78;55.92
6132;BME280;3097;42.692;23.278;2023-03-31T05:44:40;94880.28;;;12.80;54.19
6132;BME280;3097;42.692;23.278;2023-03-31T05:47:06;94888.50;;;12.94;54.51
6132;BME280;3097;42.692;23.278;2023-03-31T05:49:31;94868.22;;;13.03;54.33
6132;BME280;3097;42.692;23.278;2023-03-31T05:51:57;94891.72;;;13.51;54.70
6132;BME280;3097;42.692;23.278;2023-03-31T05:54:23;94870.59;;;13.60;52.82
6132;BME280;3097;42.692;23.278;2023-03-31T05:56:48;94898.00;;;13.77;52.49
6132;BME280;3097;42.692;23.278;2023-03-31T05:59:15;94890.56;;;13.81;52.22
6132;BME280;3097;42.692;23.278;2023-03-31T06:01:41;94892.00;;;13.72;52.31
6132;BME280;3097;42.692;23.278;2023-03-31T06:04:06;94874.22;;;13.59;51.48
6132;BME280;3097;42.692;23.278;2023-03-31T06:06:31;94898.13;;;13.66;51.18
6132;BME280;3097;42.692;23.278;2023-03-31T06:09:03;94899.41;;;13.46;51.49
6132;BME280;3097;42.692;23.278;2023-03-31T06:11:28;94903.69;;;13.36;51.55
6132;BME280;3097;42.692;23.278;2023-03-31T06:13:54;94905.00;;;13.38;51.70
6132;BME280;3097;42.692;23.278;2023-03-31T06:16:19;94899.91;;;13.27;51.92
6132;BME280;3097;42.692;23.278;2023-03-31T06:18:45;94874.34;;;12.97;52.11
6132;BME280;3097;42.692;23.278;2023-03-31T06:21:16;94892.69;;;13.12;52.61
6132;BME280;3097;42.692;23.278;2023-03-31T06:23:42;94873.38;;;13.03;51.98
6132;BME280;3097;42.692;23.278;2023-03-31T06:26:17;94892.94;;;13.27;52.18
6132;BME280;3097;42.692;23.278;2023-03-31T06:28:44;94896.59;;;13.48;51.55
6132;BME280;3097;42.692;23.278;2023-03-31T06:31:13;94896.09;;;13.89;51.31
6132;BME280;3097;42.692;23.278;2023-03-31T06:33:40;94890.78;;;14.45;50.43
6132;BME280;3097;42.692;23.278;2023-03-31T06:36:07;94894.66;;;15.38;48.80
6132;BME280;3097;42.692;23.278;2023-03-31T06:38:34;94865.25;;;15.69;46.73
6132;BME280;3097;42.692;23.278;2023-03-31T06:41:00;94896.69;;;16.30;45.40
6132;BME280;3097;42.692;23.278;2023-03-31T06:43:27;94892.03;;;16.37;44.76
6132;BME280;3097;42.692;23.278;2023-03-31T06:45:54;94902.97;;;16.44;44.44
6132;BME280;3097;42.692;23.278;2023-03-31T06:48:21;94902.78;;;16.71;44.70
6132;BME280;3097;42.692;23.278;2023-03-31T06:50:46;94908.53;;;16.73;42.98
6132;BME280;3097;42.692;23.278;2023-03-31T06:53:12;94906.19;;;16.77;43.51
6132;BME280;3097;42.692;23.278;2023-03-31T06:55:37;94892.81;;;16.38;45.12
6132;BME280;3097;42.692;23.278;2023-03-31T06:58:03;94900.34;;;16.39;43.92
6132;BME280;3097;42.692;23.278;2023-03-31T07:00:30;94902.81;;;16.76;44.21
6132;BME280;3097;42.692;23.278;2023-03-31T07:02:55;94877.22;;;17.59;43.84
6132;BME280;3097;42.692;23.278;2023-03-31T07:05:21;94870.13;;;17.90;41.70
6132;BME280;3097;42.692;23.278;2023-03-31T07:07:55;94866.03;;;18.77;40.03
6132;BME280;3097;42.692;23.278;2023-03-31T07:10:22;94846.56;;;19.56;38.05
6132;BME280;3097;42.692;23.278;2023-03-31T07:12:48;94837.25;;;20.54;37.88
6132;BME280;3097;42.692;23.278;2023-03-31T07:15:14;94832.72;;;21.84;35.84
6132;BME280;3097;42.692;23.278;2023-03-31T07:17:40;94829.44;;;23.23;32.10
6132;BME280;3097;42.692;23.278;2023-03-31T07:20:08;94817.38;;;24.09;31.21
6132;BME280;3097;42.692;23.278;2023-03-31T07:22:37;94816.50;;;24.74;30.58
6132;BME280;3097;42.692;23.278;2023-03-31T07:25:03;94816.09;;;25.36;29.15
6132;BME280;3097;42.692;23.278;2023-03-31T07:27:28;94820.09;;;25.59;29.26
6132;BME280;3097;42.692;23.278;2023-03-31T07:29:54;94818.81;;;25.65;28.80
6132;BME280;3097;42.692;23.278;2023-03-31T07:32:19;94820.59;;;25.35;29.04
6132;BME280;3097;42.692;23.278;2023-03-31T07:34:47;94788.44;;;24.87;29.48
6132;BME280;3097;42.692;23.278;2023-03-31T07:37:13;94820.84;;;24.70;29.04
6132;BME280;3097;42.692;23.278;2023-03-31T07:39:38;94806.91;;;24.52;29.80
6132;BME280;3097;42.692;23.278;2023-03-31T07:42:03;94816.63;;;24.17;30.72
6132;BME280;3097;42.692;23.278;2023-03-31T07:44:35;94822.88;;;23.42;30.84
6132;BME280;3097;42.692;23.278;2023-03-31T07:47:00;94828.84;;;23.03;32.35
6132;BME280;3097;42.692;23.278;2023-03-31T07:49:29;94829.81;;;23.07;33.16
6132;BME280;3097;42.692;23.278;2023-03-31T07:51:55;94828.78;;;22.95;33.22
6132;BME280;3097;42.692;23.278;2023-03-31T07:54:20;94839.13;;;23.13;33.35
6132;BME280;3097;42.692;23.278;2023-03-31T07:56:46;94819.28;;;23.07;32.62
6132;BME280;3097;42.692;23.278;2023-03-31T07:59:11;94837.56;;;22.90;32.80
6132;BME280;3097;42.692;23.278;2023-03-31T08:01:37;94824.19;;;22.78;33.07
6132;BME280;3097;42.692;23.278;2023-03-31T08:04:02;94818.94;;;22.42;31.93
6132;BME280;3097;42.692;23.278;2023-03-31T08:06:28;94808.47;;;22.28;33.72
6132;BME280;3097;42.692;23.278;2023-03-31T08:08:54;94819.91;;;22.10;32.53
6132;BME280;3097;42.692;23.278;2023-03-31T08:11:19;94785.50;;;21.71;33.92
6132;BME280;3097;42.692;23.278;2023-03-31T08:13:45;94815.47;;;21.23;34.46
6132;BME280;3097;42.692;23.278;2023-03-31T08:16:11;94819.06;;;20.95;34.32
6132;BME280;3097;42.692;23.278;2023-03-31T08:18:37;94812.63;;;20.55;34.52
6132;BME280;3097;42.692;23.278;2023-03-31T08:21:02;94807.22;;;20.09;35.96
6132;BME280;3097;42.692;23.278;2023-03-31T08:23:27;94809.44;;;20.21;37.43
6132;BME280;3097;42.692;23.278;2023-03-31T08:25:53;94802.59;;;20.01;36.74
6132;BME280;3097;42.692;23.278;2023-03-31T08:28:18;94804.31;;;20.10;38.41
6132;BME280;3097;42.692;23.278;2023-03-31T08:30:44;94813.25;;;20.28;37.52
6132;BME280;3097;42.692;23.278;2023-03-31T08:33:10;94796.06;;;20.22;37.50
6132;BME280;3097;42.692;23.278;2023-03-31T08:35:39;94801.44;;;20.50;36.24
6132;BME280;3097;42.692;23.278;2023-03-31T08:38:04;94812.63;;;19.94;36.29
6132;BME280;3097;42.692;23.278;2023-03-31T08:40:31;94811.22;;;19.59;38.69
6132;BME280;3097;42.692;23.278;2023-03-31T08:45:55;94807.13;;;19.53;38.13
6132;BME280;3097;42.692;23.278;2023-03-31T08:48:26;94796.59;;;19.58;38.52
6132;BME280;3097;42.692;23.278;2023-03-31T08:51:02;94774.63;;;19.78;37.79
6132;BME280;3097;42.692;23.278;2023-03-31T08:53:33;94779.97;;;19.91;38.02
6132;BME280;3097;42.692;23.278;2023-03-31T08:56:03;94789.41;;;20.11;38.53
6132;BME280;3097;42.692;23.278;2023-03-31T08:58:42;94773.06;;;20.38;37.70
6132;BME280;3097;42.692;23.278;2023-03-31T09:04:04;94766.53;;;20.54;37.39
6132;BME280;3097;42.692;23.278;2023-03-31T09:06:35;94775.13;;;20.41;36.47
6132;BME280;3097;42.692;23.278;2023-03-31T09:09:07;94755.06;;;20.31;36.41
6132;BME280;3097;42.692;23.278;2023-03-31T09:11:47;94768.75;;;20.28;36.57
6132;BME280;3097;42.692;23.278;2023-03-31T09:14:29;94761.03;;;19.99;35.58
6132;BME280;3097;42.692;23.278;2023-03-31T09:17:19;94780.00;;;19.67;37.27
6132;BME280;3097;42.692;23.278;2023-03-31T09:19:51;94765.56;;;19.51;36.30
6132;BME280;3097;42.692;23.278;2023-03-31T09:22:31;94770.84;;;19.17;36.79
6132;BME280;3097;42.692;23.278;2023-03-31T09:25:05;94758.91;;;18.82;37.00
6132;BME280;3097;42.692;23.278;2023-03-31T09:27:34;94771.97;;;18.48;38.19
6132;BME280;3097;42.692;23.278;2023-03-31T09:32:40;94664.81;;;17.57;39.05
6132;BME280;3097;42.692;23.278;2023-03-31T09:37:42;94772.88;;;18.29;38.51
6132;BME280;3097;42.692;23.278;2023-03-31T09:40:23;94778.41;;;18.22;39.36
6132;BME280;3097;42.692;23.278;2023-03-31T09:43:22;94766.97;;;18.18;39.41
6132;BME280;3097;42.692;23.278;2023-03-31T09:45:49;94767.06;;;18.03;38.98
6132;BME280;3097;42.692;23.278;2023-03-31T09:48:18;94764.28;;;17.84;39.70
6132;BME280;3097;42.692;23.278;2023-03-31T09:50:59;94747.31;;;17.87;39.79
6132;BME280;3097;42.692;23.278;2023-03-31T09:56:03;94748.50;;;18.04;40.52
6132;BME280;3097;42.692;23.278;2023-03-31T09:58:30;94699.69;;;17.61;39.34
6132;BME280;3097;42.692;23.278;2023-03-31T10:01:04;94721.28;;;17.76;40.38
6132;BME280;3097;42.692;23.278;2023-03-31T10:03:31;94733.00;;;17.79;39.80
6132;BME280;3097;42.692;23.278;2023-03-31T10:06:01;94743.38;;;17.94;40.17
6132;BME280;3097;42.692;23.278;2023-03-31T10:09:08;94718.84;;;17.95;39.52
6132;BME280;3097;42.692;23.278;2023-03-31T10:11:32;94722.13;;;18.11;39.45
6132;BME280;3097;42.692;23.278;2023-03-31T10:14:13;94699.75;;;18.00;39.37
6132;BME280;3097;42.692;23.278;2023-03-31T10:16:47;94723.97;;;18.10;38.99
6132;BME280;3097;42.692;23.278;2023-03-31T10:19:32;94687.09;;;17.83;39.89
6132;BME280;3097;42.692;23.278;2023-03-31T10:24:25;94713.06;;;17.98;39.66
6132;BME280;3097;42.692;23.278;2023-03-31T10:27:00;94714.16;;;17.92;40.18
6132;BME280;3097;42.692;23.278;2023-03-31T10:29:30;94705.13;;;17.79;40.35
6132;BME280;3097;42.692;23.278;2023-03-31T10:34:53;94681.81;;;17.39;39.97
6132;BME280;3097;42.692;23.278;2023-03-31T10:37:22;94693.78;;;17.45;41.20
6132;BME280;3097;42.692;23.278;2023-03-31T10:40:18;94677.41;;;17.39;41.50
6132;BME280;3097;42.692;23.278;2023-03-31T10:42:44;94700.88;;;17.29;42.99
6132;BME280;3097;42.692;23.278;2023-03-31T10:45:26;94688.94;;;17.23;43.20
6132;BME280;3097;42.692;23.278;2023-03-31T10:47:55;94686.84;;;17.25;42.93
6132;BME280;3097;42.692;23.278;2023-03-31T10:50:33;94692.03;;;17.30;42.68
6132;BME280;3097;42.692;23.278;2023-03-31T10:53:04;94682.44;;;17.21;44.36
6132;BME280;3097;42.692;23.278;2023-03-31T10:55:38;94683.19;;;17.26;43.11
6132;BME280;3097;42.692;23.278;2023-03-31T10:58:25;94682.66;;;17.34;42.39
6132;BME280;3097;42.692;23.278;2023-03-31T11:01:20;94678.50;;;17.28;42.15
6132;BME280;3097;42.692;23.278;2023-03-31T11:12:33;94670.47;;;17.20;41.90
6132;BME280;3097;42.692;23.278;2023-03-31T11:21:09;94663.41;;;17.25;42.20
6132;BME280;3097;42.692;23.278;2023-03-31T11:42:08;94627.81;;;17.06;42.89
6132;BME280;3097;42.692;23.278;2023-03-31T11:44:50;94630.19;;;16.97;42.85
6132;BME280;3097;42.692;23.278;2023-03-31T11:47:24;94612.56;;;16.74;43.50
6132;BME280;3097;42.692;23.278;2023-03-31T11:49:57;94622.91;;;16.89;43.00
6132;BME280;3097;42.692;23.278;2023-03-31T11:52:36;94622.66;;;16.85;43.41
6132;BME280;3097;42.692;23.278;2023-03-31T11:55:18;94615.63;;;16.91;43.24
6132;BME280;3097;42.692;23.278;2023-03-31T11:58:08;94599.50;;;16.84;44.45
6132;BME280;3097;42.692;23.278;2023-03-31T12:00:43;94600.25;;;16.94;43.82
6132;BME280;3097;42.692;23.278;2023-03-31T12:03:17;94589.59;;;16.86;43.81
6132;BME280;3097;42.692;23.278;2023-03-31T12:05:50;94566.19;;;16.81;43.78
6132;BME280;3097;42.692;23.278;2023-03-31T12:08:34;94587.72;;;17.01;43.66
6132;BME280;3097;42.692;23.278;2023-03-31T12:16:09;94579.03;;;17.16;43.12
6132;BME280;3097;42.692;23.278;2023-03-31T12:21:13;94571.22;;;17.16;43.26
6132;BME280;3097;42.692;23.278;2023-03-31T12:23:43;94569.66;;;17.15;42.57
6132;BME280;3097;42.692;23.278;2023-03-31T12:28:35;94565.56;;;17.04;43.19
6132;BME280;3097;42.692;23.278;2023-03-31T12:31:04;94566.31;;;17.10;43.59
6132;BME280;3097;42.692;23.278;2023-03-31T12:33:39;94564.50;;;17.10;43.23
6132;BME280;3097;42.692;23.278;2023-03-31T12:36:19;94567.38;;;17.03;43.50
6132;BME280;3097;42.692;23.278;2023-03-31T12:50:34;94521.88;;;17.35;42.95
6132;BME280;3097;42.692;23.278;2023-03-31T12:53:41;94528.09;;;17.39;42.92
6132;BME280;3097;42.692;23.278;2023-03-31T12:56:09;94511.00;;;17.62;42.68
6132;BME280;3097;42.692;23.278;2023-03-31T12:58:42;94507.31;;;17.68;42.83
6132;BME280;3097;42.692;23.278;2023-03-31T13:01:15;94506.94;;;17.79;43.30
6132;BME280;3097;42.692;23.278;2023-03-31T13:04:07;94509.91;;;17.97;42.42
6132;BME280;3097;42.692;23.278;2023-03-31T13:11:44;94482.13;;;18.11;42.87
6132;BME280;3097;42.692;23.278;2023-03-31T13:16:42;94456.25;;;18.14;41.34
6132;BME280;3097;42.692;23.278;2023-03-31T13:19:11;94450.31;;;18.33;41.10
6132;BME280;3097;42.692;23.278;2023-03-31T13:21:58;94440.72;;;18.47;40.97
6132;BME280;3097;42.692;23.278;2023-03-31T13:24:27;94431.69;;;18.39;40.46
6132;BME280;3097;42.692;23.278;2023-03-31T13:26:54;94430.41;;;18.37;40.45
6132;BME280;3097;42.692;23.278;2023-03-31T13:29:42;94416.50;;;18.23;40.08
6132;BME280;3097;42.692;23.278;2023-03-31T13:32:21;94421.66;;;18.28;40.67
6132;BME280;3097;42.692;23.278;2023-03-31T13:34:56;94411.97;;;18.09;40.92
6132;BME280;3097;42.692;23.278;2023-03-31T13:37:56;94417.03;;;18.19;41.41
6132;BME280;3097;42.692;23.278;2023-03-31T13:43:27;94400.59;;;18.00;41.43
6132;BME280;3097;42.692;23.278;2023-03-31T14:06:04;94371.13;;;17.76;42.07
6132;BME280;3097;42.692;23.278;2023-03-31T14:13:40;94375.13;;;17.92;42.02
6132;BME280;3097;42.692;23.278;2023-03-31T14:16:07;94367.38;;;18.06;41.79
6132;BME280;3097;42.692;23.278;2023-03-31T14:18:37;94363.97;;;18.10;41.86
6132;BME280;3097;42.692;23.278;2023-03-31T14:26:10;94349.22;;;18.19;41.32
6132;BME280;3097;42.692;23.278;2023-03-31T14:31:15;94348.13;;;18.26;41.03
6132;BME280;3097;42.692;23.278;2023-03-31T14:34:19;94344.22;;;18.23;41.15
6132;BME280;3097;42.692;23.278;2023-03-31T14:42:10;94319.38;;;18.07;40.59
6132;BME280;3097;42.692;23.278;2023-03-31T14:44:37;94332.66;;;18.10;40.74
6132;BME280;3097;42.692;23.278;2023-03-31T14:47:10;94332.06;;;17.95;41.18
6132;BME280;3097;42.692;23.278;2023-03-31T14:49:37;94323.53;;;17.89;41.52
6132;BME280;3097;42.692;23.278;2023-03-31T14:52:18;94316.19;;;17.91;41.43
6132;BME280;3097;42.692;23.278;2023-03-31T14:54:45;94290.38;;;17.71;41.58
6132;BME280;3097;42.692;23.278;2023-03-31T14:57:16;94320.78;;;17.81;41.78
6132;BME280;3097;42.692;23.278;2023-03-31T14:59:45;94322.66;;;17.75;42.34
6132;BME280;3097;42.692;23.278;2023-03-31T15:02:18;94296.91;;;17.68;41.93
6132;BME280;3097;42.692;23.278;2023-03-31T15:04:46;94299.56;;;17.87;41.53
6132;BME280;3097;42.692;23.278;2023-03-31T15:07:14;94301.69;;;17.85;41.57
6132;BME280;3097;42.692;23.278;2023-03-31T15:09:44;94307.31;;;17.92;41.36
6132;BME280;3097;42.692;23.278;2023-03-31T15:12:14;94278.72;;;17.87;40.92
6132;BME280;3097;42.692;23.278;2023-03-31T15:14:44;94298.78;;;17.87;40.66
6132;BME280;3097;42.692;23.278;2023-03-31T15:17:23;94299.56;;;17.87;41.52
6132;BME280;3097;42.692;23.278;2023-03-31T15:19:57;94308.34;;;17.96;41.31
6132;BME280;3097;42.692;23.278;2023-03-31T15:22:25;94310.88;;;18.01;40.95
6132;BME280;3097;42.692;23.278;2023-03-31T15:24:52;94299.38;;;18.02;40.74
6132;BME280;3097;42.692;23.278;2023-03-31T15:27:36;94300.94;;;18.03;40.71
6132;BME280;3097;42.692;23.278;2023-03-31T15:30:06;94300.78;;;17.95;40.85
6132;BME280;3097;42.692;23.278;2023-03-31T15:32:35;94306.47;;;17.97;41.31
6132;BME280;3097;42.692;23.278;2023-03-31T15:35:03;94294.78;;;17.94;40.90
6132;BME280;3097;42.692;23.278;2023-03-31T15:37:36;94297.47;;;17.89;41.04
6132;BME280;3097;42.692;23.278;2023-03-31T15:40:03;94296.47;;;17.85;41.56
6132;BME280;3097;42.692;23.278;2023-03-31T15:42:34;94308.19;;;17.88;41.16
6132;BME280;3097;42.692;23.278;2023-03-31T15:47:53;94250.72;;;17.50;41.61
6132;BME280;3097;42.692;23.278;2023-03-31T15:50:31;94304.97;;;17.72;41.67
6132;BME280;3097;42.692;23.278;2023-03-31T15:53:02;94305.19;;;17.75;41.64
6132;BME280;3097;42.692;23.278;2023-03-31T15:55:44;94310.22;;;17.67;41.80
6132;BME280;3097;42.692;23.278;2023-03-31T15:58:14;94299.19;;;17.75;41.81
6132;BME280;3097;42.692;23.278;2023-03-31T16:00:49;94298.28;;;17.61;41.56
6132;BME280;3097;42.692;23.278;2023-03-31T16:03:27;94295.69;;;17.61;41.91
6132;BME280;3097;42.692;23.278;2023-03-31T16:06:05;94221.22;;;17.12;41.98
6132;BME280;3097;42.692;23.278;2023-03-31T16:08:46;94296.72;;;17.60;41.87
6132;BME280;3097;42.692;23.278;2023-03-31T16:11:19;94276.28;;;17.48;41.66
6132;BME280;3097;42.692;23.278;2023-03-31T16:13:54;94273.59;;;17.34;41.48
6132;BME280;3097;42.692;23.278;2023-03-31T16:16:24;94272.88;;;17.29;41.50
6132;BME280;3097;42.692;23.278;2023-03-31T16:19:09;94246.31;;;17.03;42.23
6132;BME280;3097;42.692;23.278;2023-03-31T16:21:45;94292.50;;;17.21;42.52
6132;BME280;3097;42.692;23.278;2023-03-31T16:24:14;94277.50;;;17.08;47.05
6132;BME280;3097;42.692;23.278;2023-03-31T16:26:41;94284.31;;;17.04;43.78
6132;BME280;3097;42.692;23.278;2023-03-31T16:29:06;94079.00;;;15.63;43.10
6132;BME280;3097;42.692;23.278;2023-03-31T16:31:40;94295.88;;;16.93;43.72
6132;BME280;3097;42.692;23.278;2023-03-31T16:34:08;94271.13;;;16.67;43.96